This is the latest recevied weather packets stored in our database for station/object SP6KBU-12. If no packets are shown the sender has not sent any weather packets the latest 10 day(s).
| Time | Temp. | Humidity | Pressure | Rain* | Wind** | Luminosity | Snow |
|---|---|---|---|---|---|---|---|
| 1787614730 | 10.56° C | 72% | 1022.4 hPa | - | - | - | - |
| 1787613830 | 10.56° C | 76% | 1022.9 hPa | - | - | - | - |
| 1787612929 | 11.11° C | 74% | 1022.9 hPa | - | - | - | - |
| 1787612029 | 11.11° C | 74% | 1023.1 hPa | - | - | - | - |
| 1787611129 | 11.11° C | 73% | 1023.2 hPa | - | - | - | - |
| 1787610229 | 11.11° C | 73% | 1023.4 hPa | - | - | - | - |
| 1787609328 | 11.11° C | 73% | 1023.4 hPa | - | - | - | - |
| 1787608427 | 11.11° C | 71% | 1023.4 hPa | - | - | - | - |
| 1787607527 | 11.67° C | 70% | 1023.4 hPa | - | - | - | - |
| 1787606626 | 11.67° C | 71% | 1023.4 hPa | - | - | - | - |
| 1787605726 | 11.67° C | 68% | 1023.4 hPa | - | - | - | - |
| 1787604826 | 11.67° C | 69% | 1023.3 hPa | - | - | - | - |
| 1787604121 | 11.67° C | 62% | 1023.2 hPa | - | - | - | - |
| 1787603925 | 11.67° C | 62% | 1023.2 hPa | - | - | - | - |
| 1787603025 | 12.22° C | 63% | 1023.3 hPa | - | - | - | - |
| 1787602125 | 12.22° C | 61% | 1023.3 hPa | - | - | - | - |
| 1787601225 | 12.78° C | 60% | 1023.2 hPa | - | - | - | - |
| 1787600325 | 12.78° C | 63% | 1023.4 hPa | - | - | - | - |
| 1787599425 | 12.78° C | 59% | 1023.4 hPa | - | - | - | - |
| 1787598524 | 13.33° C | 60% | 1023.6 hPa | - | - | - | - |
| 1787597625 | 12.78° C | 57% | 1023.6 hPa | - | - | - | - |
| 1787596724 | 13.33° C | 57% | 1023.6 hPa | - | - | - | - |
| 1787595925 | 13.33° C | 58% | 1023.6 hPa | - | - | - | - |
| 1787595025 | 14.44° C | 54% | 1023.5 hPa | - | - | - | - |
| 1787594125 | 15° C | 54% | 1023.5 hPa | - | - | - | - |
* Rain since midnight (hover to see other rain measurements)
** Current wind speed in m/s (hover to see current wind gust speed)